Observation data for Haskell on 11/19/2019      Previous  Date       Current Mesonet Observations  Soil Data  Daily Summary Page  Observations in Plain Language
KHA1 190600Z 22005KT 10/04 A2993 RMK A01 T01030037  RH  065%=      5-min Rain = 0
KHA1 190605Z 21005KT 11/04 A2993 RMK A01 T01050038  RH  064%=      5-min Rain = 0
KHA1 190610Z 22005KT 11/04 A2993 RMK A01 T01060038  RH  064%=      5-min Rain = 0
KHA1 190615Z 22005KT 11/04 A2993 RMK A01 T01050036  RH  063%=      5-min Rain = 0
KHA1 190620Z 22006KT 10/04 A2993 RMK A01 T01030036  RH  064%=      5-min Rain = 0
KHA1 190625Z 22006KT 10/03 A2993 RMK A01 T00990033  RH  065%=      5-min Rain = 0
KHA1 190630Z 22006KT 09/03 A2993 RMK A01 T00920032  RH  067%=      5-min Rain = 0
KHA1 190635Z 22005KT 09/04 A2993 RMK A01 T00940036  RH  068%=      5-min Rain = 0
KHA1 190640Z 22005KT 10/04 A2993 RMK A01 T00970037  RH  067%=      5-min Rain = 0
KHA1 190645Z 22004KT 10/04 A2993 RMK A01 T00980037  RH  067%=      5-min Rain = 0
KHA1 190650Z 22004KT 10/04 A2993 RMK A01 T01000037  RH  066%=      5-min Rain = 0
KHA1 190655Z 22005KT 10/04 A2993 RMK A01 T01000036  RH  065%=      5-min Rain = 0
KHA1 190700Z 22005KT 10/03 A2993 RMK A01 T01000034  RH  065%=      5-min Rain = 0
KHA1 190705Z 23004KT 10/04 A2993 RMK A01 T00990035  RH  066%=      5-min Rain = 0
KHA1 190710Z 23004KT 10/04 A2993 RMK A01 T00990035  RH  065%=      5-min Rain = 0
KHA1 190715Z 23004KT 10/03 A2993 RMK A01 T01000034  RH  065%=      5-min Rain = 0
KHA1 190720Z 23003KT 10/03 A2992 RMK A01 T00980033  RH  065%=      5-min Rain = 0
KHA1 190725Z 23004KT 10/03 A2993 RMK A01 T00960033  RH  066%=      5-min Rain = 0
KHA1 190730Z 23004KT 10/03 A2993 RMK A01 T00950032  RH  066%=      5-min Rain = 0
KHA1 190735Z 24005KT 09/03 A2993 RMK A01 T00900029  RH  067%=      5-min Rain = 0
KHA1 190740Z 24005KT 09/03 A2993 RMK A01 T00880031  RH  069%=      5-min Rain = 0
KHA1 190745Z 25006KT 09/04 A2993 RMK A01 T00930036  RH  069%=      5-min Rain = 0
KHA1 190750Z 25006KT 10/04 A2993 RMK A01 T00980039  RH  068%=      5-min Rain = 0
KHA1 190755Z 25005KT 10/04 A2993 RMK A01 T00980037  RH  067%=      5-min Rain = 0
KHA1 190800Z 24004KT 10/04 A2993 RMK A01 T00970035  RH  067%=      5-min Rain = 0
KHA1 190805Z 23002KT 09/03 A2993 RMK A01 T00940034  RH  067%=      5-min Rain = 0
KHA1 190810Z 23002KT 09/03 A2993 RMK A01 T00940034  RH  068%=      5-min Rain = 0
KHA1 190815Z 24003KT 10/04 A2993 RMK A01 T00950035  RH  067%=      5-min Rain = 0
KHA1 190820Z 24003KT 09/03 A2993 RMK A01 T00930033  RH  067%=      5-min Rain = 0
KHA1 190825Z 23004KT 09/03 A2993 RMK A01 T00890031  RH  068%=      5-min Rain = 0
KHA1 190830Z 23004KT 09/03 A2993 RMK A01 T00880032  RH  069%=      5-min Rain = 0
KHA1 190835Z 23005KT 08/03 A2993 RMK A01 T00840030  RH  070%=      5-min Rain = 0
KHA1 190840Z 22005KT 08/03 A2993 RMK A01 T00840034  RH  072%=      5-min Rain = 0
KHA1 190845Z 22005KT 09/04 A2993 RMK A01 T00900036  RH  070%=      5-min Rain = 0
KHA1 190850Z 21004KT 09/03 A2993 RMK A01 T00930034  RH  068%=      5-min Rain = 0
KHA1 190855Z 22004KT 09/03 A2993 RMK A01 T00920033  RH  068%=      5-min Rain = 0
KHA1 190900Z 21004KT 09/03 A2993 RMK A01 T00920034  RH  068%=      5-min Rain = 0
KHA1 190905Z 21004KT 09/03 A2992 RMK A01 T00940034  RH  067%=      5-min Rain = 0
KHA1 190910Z 20004KT 09/03 A2993 RMK A01 T00930033  RH  067%=      5-min Rain = 0
KHA1 190915Z 21004KT 09/03 A2993 RMK A01 T00890031  RH  068%=      5-min Rain = 0
KHA1 190920Z 21005KT 08/03 A2993 RMK A01 T00830030  RH  071%=      5-min Rain = 0
KHA1 190925Z 21005KT 08/03 A2993 RMK A01 T00790030  RH  072%=      5-min Rain = 0
KHA1 190930Z 21005KT 08/03 A2993 RMK A01 T00800032  RH  073%=      5-min Rain = 0
KHA1 190935Z 20005KT 08/03 A2993 RMK A01 T00810031  RH  072%=      5-min Rain = 0
KHA1 190940Z 20005KT 08/03 A2993 RMK A01 T00830033  RH  072%=      5-min Rain = 0
KHA1 190945Z 20005KT 09/03 A2993 RMK A01 T00850033  RH  071%=      5-min Rain = 0
KHA1 190950Z 20005KT 08/03 A2993 RMK A01 T00800029  RH  072%=      5-min Rain = 0
KHA1 190955Z 20005KT 08/03 A2993 RMK A01 T00770031  RH  074%=      5-min Rain = 0
KHA1 191000Z 20005KT 08/03 A2993 RMK A01 T00750031  RH  075%=      5-min Rain = 0
KHA1 191005Z 21004KT 07/03 A2993 RMK A01 T00720030  RH  076%=      5-min Rain = 0
KHA1 191010Z 22004KT 07/03 A2993 RMK A01 T00670027  RH  077%=      5-min Rain = 0
KHA1 191015Z 22004KT 07/03 A2993 RMK A01 T00660028  RH  078%=      5-min Rain = 0
KHA1 191020Z 22004KT 07/03 A2993 RMK A01 T00660030  RH  079%=      5-min Rain = 0
KHA1 191025Z 22004KT 07/03 A2993 RMK A01 T00660030  RH  079%=      5-min Rain = 0
KHA1 191030Z 23004KT 07/03 A2993 RMK A01 T00660030  RH  079%=      5-min Rain = 0
KHA1 191035Z 24004KT 06/03 A2993 RMK A01 T00630028  RH  079%=      5-min Rain = 0
KHA1 191040Z 25004KT 06/02 A2993 RMK A01 T00580023  RH  080%=      5-min Rain = 0
KHA1 191045Z 25005KT 05/02 A2993 RMK A01 T00510020  RH  082%=      5-min Rain = 0
KHA1 191050Z 25004KT 05/02 A2994 RMK A01 T00490021  RH  083%=      5-min Rain = 0
KHA1 191055Z 25005KT 05/02 A2994 RMK A01 T00490023  RH  084%=      5-min Rain = 0
KHA1 191100Z 24003KT 06/03 A2994 RMK A01 T00550029  RH  085%=      5-min Rain = 0
KHA1 191105Z 24002KT 06/03 A2994 RMK A01 T00610033  RH  084%=      5-min Rain = 0
KHA1 191110Z 24002KT 06/03 A2994 RMK A01 T00620031  RH  082%=      5-min Rain = 0
KHA1 191115Z 24002KT 06/03 A2994 RMK A01 T00620029  RH  081%=      5-min Rain = 0
KHA1 191120Z 26001KT 06/03 A2994 RMK A01 T00610028  RH  081%=      5-min Rain = 0
KHA1 191125Z 29002KT 06/03 A2994 RMK A01 T00630029  RH  081%=      5-min Rain = 0
KHA1 191130Z 29001KT 06/03 A2994 RMK A01 T00600025  RH  080%=      5-min Rain = 0
KHA1 191135Z 29001KT 05/02 A2994 RMK A01 T00530019  RH  080%=      5-min Rain = 0
KHA1 191140Z 29000KT 05/02 A2994 RMK A01 T00460016  RH  082%=      5-min Rain = 0
KHA1 191145Z 00000KT 05/02 A2994 RMK A01 T00500022  RH  084%=      5-min Rain = 0
KHA1 191150Z 23000KT 05/02 A2994 RMK A01 T00490022  RH  084%=      5-min Rain = 0
KHA1 191155Z 23000KT 05/02 A2994 RMK A01 T00500023  RH  084%=      5-min Rain = 0
KHA1 191200Z 00000KT 05/02 A2994 RMK A01 T00510024  RH  084%=      5-min Rain = 0
KHA1 191205Z 24000KT 05/02 A2995 RMK A01 T00510024  RH  084%=      5-min Rain = 0
KHA1 191210Z 21000KT 05/03 A2994 RMK A01 T00520025  RH  084%=      5-min Rain = 0
KHA1 191215Z 18001KT 06/03 A2995 RMK A01 T00550028  RH  084%=      5-min Rain = 0
KHA1 191220Z 18002KT 06/03 A2995 RMK A01 T00550026  RH  083%=      5-min Rain = 0
KHA1 191225Z 18003KT 06/03 A2995 RMK A01 T00580027  RH  082%=      5-min Rain = 0
KHA1 191230Z 18003KT 05/02 A2995 RMK A01 T00520020  RH  081%=      5-min Rain = 0
KHA1 191235Z 18003KT 05/02 A2995 RMK A01 T00450016  RH  082%=      5-min Rain = 0
KHA1 191240Z 18003KT 05/02 A2995 RMK A01 T00450018  RH  084%=      5-min Rain = 0
KHA1 191245Z 18003KT 04/02 A2995 RMK A01 T00430018  RH  084%=      5-min Rain = 0
KHA1 191250Z 19003KT 05/02 A2995 RMK A01 T00460021  RH  086%=      5-min Rain = 0
KHA1 191255Z 19003KT 05/02 A2995 RMK A01 T00460021  RH  085%=      5-min Rain = 0
KHA1 191300Z 19003KT 05/02 A2995 RMK A01 T00460021  RH  085%=      5-min Rain = 0
KHA1 191305Z 18004KT 05/02 A2996 RMK A01 T00470022  RH  086%=      5-min Rain = 0
KHA1 191310Z 18004KT 05/02 A2996 RMK A01 T00480023  RH  085%=      5-min Rain = 0
KHA1 191315Z 18005KT 05/02 A2996 RMK A01 T00450019  RH  085%=      5-min Rain = 0
KHA1 191320Z 18004KT 04/02 A2996 RMK A01 T00420017  RH  085%=      5-min Rain = 0
KHA1 191325Z 19005KT 04/02 A2996 RMK A01 T00420018  RH  086%=      5-min Rain = 0
KHA1 191330Z 19005KT 05/02 A2996 RMK A01 T00470024  RH  087%=      5-min Rain = 0
KHA1 191335Z 20005KT 05/03 A2997 RMK A01 T00510027  RH  086%=      5-min Rain = 0
KHA1 191340Z 20005KT 05/03 A2997 RMK A01 T00500025  RH  085%=      5-min Rain = 0
KHA1 191345Z 20005KT 05/03 A2997 RMK A01 T00540029  RH  085%=      5-min Rain = 0
KHA1 191350Z 20005KT 06/03 A2997 RMK A01 T00570032  RH  085%=      5-min Rain = 0
KHA1 191355Z 20005KT 06/04 A2997 RMK A01 T00610035  RH  085%=      5-min Rain = 0
KHA1 191400Z 19005KT 06/04 A2997 RMK A01 T00640037  RH  084%=      5-min Rain = 0
KHA1 191405Z 20005KT 07/04 A2997 RMK A01 T00690040  RH  083%=      5-min Rain = 0
KHA1 191410Z 21004KT 07/04 A2997 RMK A01 T00740042  RH  082%=      5-min Rain = 0
KHA1 191415Z 21004KT 08/04 A2997 RMK A01 T00780044  RH  080%=      5-min Rain = 0
KHA1 191420Z 20004KT 08/04 A2997 RMK A01 T00820044  RH  079%=      5-min Rain = 0
KHA1 191425Z 20004KT 09/05 A2997 RMK A01 T00860046  RH  078%=      5-min Rain = 0
KHA1 191430Z 21003KT 09/05 A2997 RMK A01 T00910048  RH  076%=      5-min Rain = 0
KHA1 191435Z 21004KT 10/05 A2997 RMK A01 T00960049  RH  074%=      5-min Rain = 0
KHA1 191440Z 21005KT 10/05 A2997 RMK A01 T00990049  RH  073%=      5-min Rain = 0
KHA1 191445Z 21005KT 10/05 A2997 RMK A01 T01020048  RH  071%=      5-min Rain = 0
KHA1 191450Z 21005KT 10/05 A2997 RMK A01 T01040048  RH  070%=      5-min Rain = 0
KHA1 191455Z 20004KT 11/05 A2997 RMK A01 T01070049  RH  069%=      5-min Rain = 0
KHA1 191500Z 20004KT 11/05 A2997 RMK A01 T01100050  RH  068%=      5-min Rain = 0
KHA1 191505Z 20005KT 11/05 A2997 RMK A01 T01140050  RH  066%=      5-min Rain = 0
KHA1 191510Z 20004KT 12/05 A2997 RMK A01 T01180052  RH  065%=      5-min Rain = 0
KHA1 191515Z 20004KT 12/05 A2997 RMK A01 T01210051  RH  063%=      5-min Rain = 0
KHA1 191520Z 20004KT 12/05 A2997 RMK A01 T01240052  RH  063%=      5-min Rain = 0
KHA1 191525Z 20004KT 13/05 A2997 RMK A01 T01270053  RH  062%=      5-min Rain = 0
KHA1 191530Z 19004KT 13/06 A2997 RMK A01 T01320057  RH  062%=      5-min Rain = 0
KHA1 191535Z 19003KT 14/06 A2997 RMK A01 T01360061  RH  062%=      5-min Rain = 0
KHA1 191540Z 18004KT 14/06 A2997 RMK A01 T01390063  RH  062%=      5-min Rain = 0
KHA1 191545Z 18003KT 14/06 A2997 RMK A01 T01420062  RH  060%=      5-min Rain = 0
KHA1 191550Z 18004KT 15/06 A2997 RMK A01 T01470062  RH  058%=      5-min Rain = 0
KHA1 191555Z 18004KT 15/06 A2997 RMK A01 T01500060  RH  056%=      5-min Rain = 0
KHA1 191600Z 18004KT 16/06 A2997 RMK A01 T01560061  RH  054%=      5-min Rain = 0
KHA1 191605Z 18004KT 16/06 A2997 RMK A01 T01580059  RH  053%=      5-min Rain = 0
KHA1 191610Z 18004KT 16/06 A2997 RMK A01 T01640060  RH  051%=      5-min Rain = 0
KHA1 191615Z 19005KT 17/06 A2997 RMK A01 T01700057  RH  048%=      5-min Rain = 0
KHA1 191620Z 19006KT 18/06 A2997 RMK A01 T01750055  RH  046%=      5-min Rain = 0
KHA1 191625Z 19006KT 18/05 A2997 RMK A01 T01770054  RH  045%=      5-min Rain = 0
KHA1 191630Z 20006KT 18/05 A2997 RMK A01 T01830054  RH  043%=      5-min Rain = 0
KHA1 191635Z 20006KT 18/05 A2996 RMK A01 T01840053  RH  043%=      5-min Rain = 0
KHA1 191640Z 20006KT 19/05 A2996 RMK A01 T01860054  RH  043%=      5-min Rain = 0
KHA1 191645Z 20006KT 19/06 A2996 RMK A01 T01910056  RH  042%=      5-min Rain = 0
KHA1 191650Z 20006KT 19/06 A2996 RMK A01 T01890057  RH  043%=      5-min Rain = 0
KHA1 191655Z 20005KT 19/06 A2996 RMK A01 T01900057  RH  043%=      5-min Rain = 0
KHA1 191700Z 20007KT 19/06 A2996 RMK A01 T01940057  RH  041%=      5-min Rain = 0
KHA1 191705Z 19006KT 20/06 A2996 RMK A01 T01970058  RH  041%=      5-min Rain = 0
KHA1 191710Z 20006KT 20/06 A2995 RMK A01 T01990057  RH  040%=      5-min Rain = 0
KHA1 191715Z 21006KT 20/06 A2995 RMK A01 T02000057  RH  040%=      5-min Rain = 0
KHA1 191720Z 19005KT 20/06 A2995 RMK A01 T02020058  RH  040%=      5-min Rain = 0
KHA1 191725Z 21005KT 21/06 A2995 RMK A01 T02050061  RH  040%=      5-min Rain = 0
KHA1 191730Z 20007KT 21/06 A2995 RMK A01 T02100061  RH  039%=      5-min Rain = 0
KHA1 191735Z 21007KT 21/06 A2994 RMK A01 T02100061  RH  039%=      5-min Rain = 0
KHA1 191740Z 20008KT 22/07 A2994 RMK A01 T02150065  RH  039%=      5-min Rain = 0
KHA1 191745Z 21009KT 22/07 A2994 RMK A01 T02160065  RH  038%=      5-min Rain = 0
KHA1 191750Z 21007KT 22/07 A2994 RMK A01 T02170066  RH  038%=      5-min Rain = 0
KHA1 191755Z 22008KT 22/07 A2994 RMK A01 T02220067  RH  038%=      5-min Rain = 0
KHA1 191800Z 21009KT 22/07 A2993 RMK A01 T02220066  RH  038%=      5-min Rain = 0
KHA1 191805Z 21009KT 22/07 A2993 RMK A01 T02220066  RH  037%=      5-min Rain = 0
KHA1 191810Z 21008KT 22/07 A2993 RMK A01 T02230066  RH  037%=      5-min Rain = 0
KHA1 191815Z 21008KT 23/07 A2993 RMK A01 T02270068  RH  037%=      5-min Rain = 0
KHA1 191820Z 19007KT 23/07 A2992 RMK A01 T02300069  RH  036%=      5-min Rain = 0
KHA1 191825Z 19008KT 23/07 A2992 RMK A01 T02280068  RH  036%=      5-min Rain = 0
KHA1 191830Z 20009KT 23/07 A2992 RMK A01 T02280068  RH  036%=      5-min Rain = 0
KHA1 191835Z 19008KT 23/07 A2991 RMK A01 T02270068  RH  037%=      5-min Rain = 0
KHA1 191840Z 18007KT 23/07 A2991 RMK A01 T02280068  RH  036%=      5-min Rain = 0
KHA1 191845Z 18008KT 23/07 A2991 RMK A01 T02270067  RH  037%=      5-min Rain = 0
KHA1 191850Z 19008KT 23/07 A2991 RMK A01 T02300068  RH  036%=      5-min Rain = 0
KHA1 191855Z 19007KT 23/07 A2991 RMK A01 T02330069  RH  036%=      5-min Rain = 0
KHA1 191900Z 19007KT 23/07 A299 RMK A01 T02340068  RH  035%=      5-min Rain = 0
KHA1 191905Z 18007KT 24/07 A299 RMK A01 T02350068  RH  035%=      5-min Rain = 0
KHA1 191910Z 18007KT 23/07 A2989 RMK A01 T02340066  RH  035%=      5-min Rain = 0
KHA1 191915Z 17007KT 24/07 A2989 RMK A01 T02370065  RH  034%=      5-min Rain = 0
KHA1 191920Z 15008KT 24/06 A2989 RMK A01 T02390063  RH  033%=      5-min Rain = 0
KHA1 191925Z 18007G14KT 24/06 A2988 RMK A01 T02410064  RH  033%=      5-min Rain = 0
KHA1 191930Z 18009KT 24/06 A2988 RMK A01 T02430064  RH  032%=      5-min Rain = 0
KHA1 191935Z 17008KT 24/07 A2987 RMK A01 T02440065  RH  032%=      5-min Rain = 0
KHA1 191940Z 14007KT 25/07 A2987 RMK A01 T02480065  RH  032%=      5-min Rain = 0
KHA1 191945Z 17008G14KT 25/06 A2987 RMK A01 T02510061  RH  030%=      5-min Rain = 0
KHA1 191950Z 16008KT 25/06 A2986 RMK A01 T02540061  RH  030%=      5-min Rain = 0
KHA1 191955Z 15008G14KT 25/06 A2986 RMK A01 T02530057  RH  029%=      5-min Rain = 0
KHA1 192000Z 16011G17KT 26/05 A2986 RMK A01 T02550049  RH  027%=      5-min Rain = 0
KHA1 192005Z 17012G18KT 26/05 A2986 RMK A01 T02550051  RH  028%=      5-min Rain = 0
KHA1 192010Z 17009G14KT 26/05 A2986 RMK A01 T02580052  RH  027%=      5-min Rain = 0
KHA1 192015Z 18008G14KT 26/05 A2985 RMK A01 T02600053  RH  027%=      5-min Rain = 0
KHA1 192020Z 16009KT 26/05 A2985 RMK A01 T02610047  RH  026%=      5-min Rain = 0
KHA1 192025Z 17010G15KT 26/04 A2985 RMK A01 T02620043  RH  025%=      5-min Rain = 0
KHA1 192030Z 17012G17KT 26/04 A2985 RMK A01 T02610037  RH  024%=      5-min Rain = 0
KHA1 192035Z 18012KT 26/04 A2985 RMK A01 T02630037  RH  024%=      5-min Rain = 0
KHA1 192040Z 19012KT 26/04 A2984 RMK A01 T02640040  RH  024%=      5-min Rain = 0
KHA1 192045Z 18013G19KT 26/04 A2984 RMK A01 T02620039  RH  024%=      5-min Rain = 0
KHA1 192050Z 19012G19KT 26/04 A2984 RMK A01 T02610041  RH  025%=      5-min Rain = 0
KHA1 192055Z 17013G19KT 26/04 A2984 RMK A01 T02600039  RH  025%=      5-min Rain = 0
KHA1 192100Z 17010G16KT 26/04 A2984 RMK A01 T02610039  RH  024%=      5-min Rain = 0
KHA1 192105Z 17010G15KT 26/04 A2984 RMK A01 T02610035  RH  024%=      5-min Rain = 0
KHA1 192110Z 18012G17KT 26/03 A2984 RMK A01 T02620033  RH  023%=      5-min Rain = 0
KHA1 192115Z 18012G18KT 26/02 A2983 RMK A01 T02590023  RH  022%=      5-min Rain = 0
KHA1 192120Z 17011G16KT 26/02 A2983 RMK A01 T02600022  RH  022%=      5-min Rain = 0
KHA1 192125Z 17011G18KT 26/03 A2983 RMK A01 T02590025  RH  022%=      5-min Rain = 0
KHA1 192130Z 18012G18KT 26/03 A2983 RMK A01 T02600028  RH  023%=      5-min Rain = 0
KHA1 192135Z 19012G17KT 26/03 A2983 RMK A01 T02580028  RH  023%=      5-min Rain = 0
KHA1 192140Z 17012G17KT 26/03 A2983 RMK A01 T02570029  RH  023%=      5-min Rain = 0
KHA1 192145Z 17010KT 26/03 A2983 RMK A01 T02560032  RH  024%=      5-min Rain = 0
KHA1 192150Z 17013KT 26/03 A2982 RMK A01 T02550030  RH  024%=      5-min Rain = 0
KHA1 192155Z 17013KT 25/03 A2982 RMK A01 T02540029  RH  024%=      5-min Rain = 0
KHA1 192200Z 17011G17KT 25/02 A2982 RMK A01 T02540024  RH  023%=      5-min Rain = 0
KHA1 192205Z 17013G18KT 25/02 A2982 RMK A01 T02540020  RH  022%=      5-min Rain = 0
KHA1 192210Z 18012KT 25/02 A2982 RMK A01 T02540021  RH  022%=      5-min Rain = 0
KHA1 192215Z 18010G15KT 25/02 A2982 RMK A01 T02540021  RH  022%=      5-min Rain = 0
KHA1 192220Z 17011G16KT 25/02 A2982 RMK A01 T02540024  RH  023%=      5-min Rain = 0
KHA1 192225Z 17009KT 25/03 A2982 RMK A01 T02530028  RH  023%=      5-min Rain = 0
KHA1 192230Z 17010G17KT 25/03 A2982 RMK A01 T02530029  RH  024%=      5-min Rain = 0
KHA1 192235Z 17011G16KT 25/03 A2982 RMK A01 T02510028  RH  024%=      5-min Rain = 0
KHA1 192240Z 18010G15KT 25/03 A2982 RMK A01 T02500030  RH  024%=      5-min Rain = 0
KHA1 192245Z 17010KT 25/03 A2981 RMK A01 T02470030  RH  025%=      5-min Rain = 0
KHA1 192250Z 17009KT 24/03 A2981 RMK A01 T02420031  RH  026%=      5-min Rain = 0
KHA1 192255Z 17009KT 24/03 A2981 RMK A01 T02410030  RH  026%=      5-min Rain = 0
KHA1 192300Z 17008KT 24/03 A2982 RMK A01 T02400031  RH  026%=      5-min Rain = 0
KHA1 192305Z 17007KT 24/03 A2982 RMK A01 T02380032  RH  027%=      5-min Rain = 0
KHA1 192310Z 17007KT 24/03 A2982 RMK A01 T02360032  RH  027%=      5-min Rain = 0
KHA1 192315Z 17007KT 23/03 A2982 RMK A01 T02320033  RH  028%=      5-min Rain = 0
KHA1 192320Z 17008KT 23/04 A2982 RMK A01 T02300035  RH  028%=      5-min Rain = 0
KHA1 192325Z 17007KT 23/04 A2982 RMK A01 T02290037  RH  029%=      5-min Rain = 0
KHA1 192330Z 17007KT 23/04 A2982 RMK A01 T02270038  RH  030%=      5-min Rain = 0
KHA1 192335Z 17007KT 23/04 A2982 RMK A01 T02260041  RH  030%=      5-min Rain = 0
KHA1 192340Z 16007KT 23/04 A2982 RMK A01 T02260042  RH  031%=      5-min Rain = 0
KHA1 192345Z 17007KT 22/04 A2982 RMK A01 T02240043  RH  031%=      5-min Rain = 0
KHA1 192350Z 16007KT 22/05 A2982 RMK A01 T02210045  RH  032%=      5-min Rain = 0
KHA1 192355Z 16008KT 22/05 A2982 RMK A01 T02210047  RH  033%=      5-min Rain = 0
KHA1 200000Z 16008KT 22/05 A2982 RMK A01 T02210048  RH  033%=      5-min Rain = 0
KHA1 200005Z 16008KT 22/05 A2982 RMK A01 T02180049  RH  034%=      5-min Rain = 0
KHA1 200010Z 16007KT 22/05 A2982 RMK A01 T02160049  RH  034%=      5-min Rain = 0
KHA1 200015Z 15008KT 21/05 A2982 RMK A01 T02140049  RH  035%=      5-min Rain = 0
KHA1 200020Z 15008KT 21/05 A2982 RMK A01 T02130049  RH  035%=      5-min Rain = 0
KHA1 200025Z 15008KT 21/05 A2982 RMK A01 T02110049  RH  035%=      5-min Rain = 0
KHA1 200030Z 15008KT 21/05 A2982 RMK A01 T02090049  RH  036%=      5-min Rain = 0
KHA1 200035Z 15007KT 21/05 A2982 RMK A01 T02090049  RH  036%=      5-min Rain = 0
KHA1 200040Z 15007KT 21/05 A2982 RMK A01 T02080049  RH  036%=      5-min Rain = 0
KHA1 200045Z 14007G12KT 21/05 A2982 RMK A01 T02060050  RH  037%=      5-min Rain = 0
KHA1 200050Z 14007KT 20/05 A2982 RMK A01 T02040051  RH  037%=      5-min Rain = 0
KHA1 200055Z 14008KT 20/05 A2982 RMK A01 T02020051  RH  038%=      5-min Rain = 0
KHA1 200100Z 14007KT 20/05 A2982 RMK A01 T01990052  RH  039%=      5-min Rain = 0
KHA1 200105Z 14007KT 20/05 A2982 RMK A01 T01960053  RH  040%=      5-min Rain = 0
KHA1 200110Z 14008KT 20/05 A2982 RMK A01 T01960052  RH  040%=      5-min Rain = 0
KHA1 200115Z 13008KT 20/05 A2982 RMK A01 T01960053  RH  040%=      5-min Rain = 0
KHA1 200120Z 14009KT 20/05 A2982 RMK A01 T01960053  RH  040%=      5-min Rain = 0
KHA1 200125Z 14009KT 20/05 A2982 RMK A01 T01950054  RH  040%=      5-min Rain = 0
KHA1 200130Z 14009KT 19/05 A2982 RMK A01 T01940054  RH  041%=      5-min Rain = 0
KHA1 200135Z 14009G14KT 19/06 A2982 RMK A01 T01930055  RH  041%=      5-min Rain = 0
KHA1 200140Z 14009KT 19/06 A2982 RMK A01 T01920055  RH  042%=      5-min Rain = 0
KHA1 200145Z 14009KT 19/06 A2982 RMK A01 T01900056  RH  042%=      5-min Rain = 0
KHA1 200150Z 14009KT 19/06 A2982 RMK A01 T01880056  RH  043%=      5-min Rain = 0
KHA1 200155Z 14008KT 19/06 A2982 RMK A01 T01860056  RH  044%=      5-min Rain = 0
KHA1 200200Z 14008G13KT 19/06 A2982 RMK A01 T01850056  RH  044%=      5-min Rain = 0
KHA1 200205Z 14009KT 18/06 A2982 RMK A01 T01840057  RH  044%=      5-min Rain = 0
KHA1 200210Z 14009KT 18/06 A2982 RMK A01 T01810057  RH  045%=      5-min Rain = 0
KHA1 200215Z 14009KT 18/06 A2982 RMK A01 T01780057  RH  046%=      5-min Rain = 0
KHA1 200220Z 14009KT 18/06 A2982 RMK A01 T01780057  RH  046%=      5-min Rain = 0
KHA1 200225Z 15009KT 18/06 A2982 RMK A01 T01780057  RH  046%=      5-min Rain = 0
KHA1 200230Z 15010KT 18/06 A2982 RMK A01 T01770057  RH  046%=      5-min Rain = 0
KHA1 200235Z 15009KT 18/06 A2982 RMK A01 T01770057  RH  046%=      5-min Rain = 0
KHA1 200240Z 15009KT 18/06 A2982 RMK A01 T01770057  RH  046%=      5-min Rain = 0
KHA1 200245Z 15009KT 18/06 A2982 RMK A01 T01760057  RH  047%=      5-min Rain = 0
KHA1 200250Z 15009KT 17/06 A2982 RMK A01 T01740057  RH  047%=      5-min Rain = 0
KHA1 200255Z 15009KT 17/06 A2982 RMK A01 T01740058  RH  047%=      5-min Rain = 0
KHA1 200300Z 16009G14KT 18/06 A2982 RMK A01 T01760059  RH  047%=      5-min Rain = 0
KHA1 200305Z 16009G14KT 18/06 A2982 RMK A01 T01760059  RH  047%=      5-min Rain = 0
KHA1 200310Z 16009KT 18/06 A2982 RMK A01 T01760059  RH  047%=      5-min Rain = 0
KHA1 200315Z 16009G14KT 18/06 A2982 RMK A01 T01750060  RH  048%=      5-min Rain = 0
KHA1 200320Z 16009KT 17/06 A2982 RMK A01 T01740060  RH  048%=      5-min Rain = 0
KHA1 200325Z 16008KT 17/06 A2982 RMK A01 T01720061  RH  049%=      5-min Rain = 0
KHA1 200330Z 16008KT 17/06 A2983 RMK A01 T01700061  RH  050%=      5-min Rain = 0
KHA1 200335Z 16009KT 17/06 A2983 RMK A01 T01710062  RH  050%=      5-min Rain = 0
KHA1 200340Z 16009KT 17/06 A2983 RMK A01 T01700062  RH  050%=      5-min Rain = 0
KHA1 200345Z 16009KT 17/06 A2983 RMK A01 T01690063  RH  051%=      5-min Rain = 0
KHA1 200350Z 16008KT 17/06 A2983 RMK A01 T01680064  RH  051%=      5-min Rain = 0
KHA1 200355Z 16008KT 17/06 A2983 RMK A01 T01680064  RH  052%=      5-min Rain = 0
KHA1 200400Z 16008KT 17/07 A2983 RMK A01 T01680065  RH  052%=      5-min Rain = 0
KHA1 200405Z 15009KT 17/07 A2983 RMK A01 T01670066  RH  052%=      5-min Rain = 0
KHA1 200410Z 16008KT 17/07 A2983 RMK A01 T01660066  RH  053%=      5-min Rain = 0
KHA1 200415Z 16008KT 17/07 A2983 RMK A01 T01650068  RH  054%=      5-min Rain = 0
KHA1 200420Z 16008KT 17/07 A2983 RMK A01 T01650069  RH  054%=      5-min Rain = 0
KHA1 200425Z 16008KT 16/07 A2983 RMK A01 T01640070  RH  055%=      5-min Rain = 0
KHA1 200430Z 16008KT 16/07 A2983 RMK A01 T01640071  RH  056%=      5-min Rain = 0
KHA1 200435Z 16009KT 16/07 A2984 RMK A01 T01640072  RH  056%=      5-min Rain = 0
KHA1 200440Z 16008KT 16/07 A2983 RMK A01 T01640073  RH  056%=      5-min Rain = 0
KHA1 200445Z 16008KT 16/07 A2984 RMK A01 T01630073  RH  057%=      5-min Rain = 0
KHA1 200450Z 16007KT 16/07 A2984 RMK A01 T01640074  RH  057%=      5-min Rain = 0
KHA1 200455Z 16007KT 16/07 A2984 RMK A01 T01620074  RH  057%=      5-min Rain = 0
KHA1 200500Z 16007KT 16/08 A2984 RMK A01 T01610075  RH  058%=      5-min Rain = 0
KHA1 200505Z 15007KT 16/08 A2984 RMK A01 T01600075  RH  058%=      5-min Rain = 0
KHA1 200510Z 15007KT 16/08 A2983 RMK A01 T01570075  RH  060%=      5-min Rain = 0
KHA1 200515Z 15007KT 16/08 A2983 RMK A01 T01570076  RH  060%=      5-min Rain = 0
KHA1 200520Z 15007KT 16/08 A2984 RMK A01 T01570077  RH  060%=      5-min Rain = 0
KHA1 200525Z 16006KT 16/08 A2984 RMK A01 T01570077  RH  061%=      5-min Rain = 0
KHA1 200530Z 16006KT 16/08 A2984 RMK A01 T01570078  RH  061%=      5-min Rain = 0
KHA1 200535Z 16007KT 16/08 A2984 RMK A01 T01570078  RH  061%=      5-min Rain = 0
KHA1 200540Z 16007KT 16/08 A2983 RMK A01 T01570078  RH  061%=      5-min Rain = 0
KHA1 200545Z 16008KT 16/08 A2983 RMK A01 T01610079  RH  060%=      5-min Rain = 0
KHA1 200550Z 16007KT 16/08 A2983 RMK A01 T01610079  RH  060%=      5-min Rain = 0
KHA1 200555Z 16007KT 16/08 A2983 RMK A01 T01600079  RH  060%=      5-min Rain = 0

Page generated in 0.009 seconds.